Time;durP1;ratioP1;P1;durP2;ratioP2;P2;SDS_P1;SDS_P2;PMS_P1;PMS_P2;Temp;Humidity;BMP_temperature;BMP_pressure;BME280_temperature;BME280_humidity;BME280_pressure;Samples;Min_cycle;Max_cycle;Signal;HPM_P1;HPM_P2
2023/01/19 00:00:39;;;;;;;15.73;10.60;;;;;;;;;;5025231;28;20544;-87
2023/01/19 00:03:44;;;;;;;22.67;11.00;;;;;;;;;;5028051;28;20611;-87
2023/01/19 00:06:48;;;;;;;14.87;10.73;;;;;;;;;;5019692;28;20552;-87
2023/01/19 00:09:52;;;;;;;16.17;10.60;;;;;;;;;;5021061;28;20552;-87
2023/01/19 00:12:56;;;;;;;20.63;10.90;;;;;;;;;;5030436;28;20626;-87
2023/01/19 00:16:01;;;;;;;15.37;10.00;;;;;;;;;;5018376;28;20563;-86
2023/01/19 00:19:05;;;;;;;16.90;11.43;;;;;;;;;;5031317;28;20552;-87
2023/01/19 00:22:09;;;;;;;15.17;11.37;;;;;;;;;;5032243;28;20618;-86
2023/01/19 00:25:13;;;;;;;16.60;10.17;;;;;;;;;;5011031;28;20607;-86
2023/01/19 00:28:18;;;;;;;16.67;11.30;;;;;;;;;;5022264;28;20591;-87
2023/01/19 00:31:23;;;;;;;16.93;10.53;;;;;;;;;;5033547;28;21181;-87
2023/01/19 00:34:35;;;;;;;19.47;9.97;;;;;;;;;;5022623;28;20540;-87
2023/01/19 00:37:40;;;;;;;15.83;9.47;;;;;;;;;;5033279;28;20904;-88
2023/01/19 00:40:44;;;;;;;14.43;10.03;;;;;;;;;;5021930;28;20548;-88
2023/01/19 00:43:48;;;;;;;21.97;11.13;;;;;;;;;;5032472;28;20610;-87
2023/01/19 00:46:53;;;;;;;16.87;10.23;;;;;;;;;;5032318;28;20551;-88
2023/01/19 00:49:57;;;;;;;14.50;9.90;;;;;;;;;;5021056;28;20544;-87
2023/01/19 00:53:01;;;;;;;19.50;10.30;;;;;;;;;;5020722;28;20627;-87
2023/01/19 00:56:06;;;;;;;14.30;9.87;;;;;;;;;;5031448;28;20603;-87
2023/01/19 00:59:10;;;;;;;12.37;8.80;;;;;;;;;;5020066;28;20551;-87
2023/01/19 01:02:14;;;;;;;12.77;8.90;;;;;;;;;;5019637;28;21007;-88
2023/01/19 01:05:19;;;;;;;18.63;8.70;;;;;;;;;;5018803;28;20603;-87
2023/01/19 01:08:24;;;;;;;11.23;8.17;;;;;;;;;;5019012;28;20552;-87
2023/01/19 01:11:28;;;;;;;11.87;7.70;;;;;;;;;;5018309;28;20622;-87
2023/01/19 01:14:33;;;;;;;10.13;7.17;;;;;;;;;;5029290;28;20548;-88
2023/01/19 01:17:46;;;;;;;14.13;7.27;;;;;;;;;;5018244;28;20543;-88
2023/01/19 01:20:50;;;;;;;13.23;7.03;;;;;;;;;;5028562;28;20913;-88
2023/01/19 01:23:55;;;;;;;14.77;6.87;;;;;;;;;;5016976;28;20552;-87
2023/01/19 01:26:59;;;;;;;10.87;6.03;;;;;;;;;;5006084;28;20552;-87
2023/01/19 01:30:04;;;;;;;12.57;6.23;;;;;;;;;;5017002;28;20555;-87
2023/01/19 01:33:10;;;;;;;12.67;6.53;;;;;;;;;;5015553;28;20615;-87
2023/01/19 01:36:14;;;;;;;8.93;6.13;;;;;;;;;;5016412;28;20547;-86
2023/01/19 01:39:20;;;;;;;11.00;6.23;;;;;;;;;;5005509;28;20547;-86
2023/01/19 01:42:30;;;;;;;10.20;5.90;;;;;;;;;;5027781;28;20627;-86
2023/01/19 01:45:38;;;;;;;11.07;6.03;;;;;;;;;;5004708;28;20651;-86
2023/01/19 01:48:52;;;;;;;8.27;6.00;;;;;;;;;;5015668;28;20598;-87
2023/01/19 01:51:56;;;;;;;11.20;7.17;;;;;;;;;;5026056;28;20627;-87
2023/01/19 01:55:02;;;;;;;10.63;6.23;;;;;;;;;;5014687;28;20599;-87
2023/01/19 01:58:10;;;;;;;12.73;6.80;;;;;;;;;;5015268;28;20544;-87
2023/01/19 02:04:41;;;;;;;11.43;7.80;;;;;;;;;;5026261;28;20596;-87
2023/01/19 02:14:50;;;;;;;12.97;8.73;;;;;;;;;;5013717;28;20552;-87
2023/01/19 02:17:57;;;;;;;18.57;9.03;;;;;;;;;;5013995;28;20610;-86
2023/01/19 02:21:13;;;;;;;15.53;8.70;;;;;;;;;;5014264;28;20552;-87
2023/01/19 02:24:18;;;;;;;14.60;8.67;;;;;;;;;;5014620;28;20548;-86
2023/01/19 02:27:22;;;;;;;14.17;9.20;;;;;;;;;;5025130;28;21126;-86
2023/01/19 02:30:27;;;;;;;14.17;9.60;;;;;;;;;;5002992;28;20603;-86
2023/01/19 02:33:31;;;;;;;15.27;9.90;;;;;;;;;;5002438;28;20552;-87
2023/01/19 02:36:43;;;;;;;13.40;9.40;;;;;;;;;;5014126;28;20915;-87
2023/01/19 02:39:54;;;;;;;19.67;9.97;;;;;;;;;;5013445;28;20595;-87
2023/01/19 02:42:59;;;;;;;15.17;8.90;;;;;;;;;;5024265;28;20963;-86
2023/01/19 02:46:03;;;;;;;12.77;9.23;;;;;;;;;;5013703;28;20608;-87
2023/01/19 02:49:08;;;;;;;15.30;9.17;;;;;;;;;;5013521;28;20561;-87
2023/01/19 02:52:16;;;;;;;13.90;9.13;;;;;;;;;;5013452;28;20627;-87
2023/01/19 02:55:27;;;;;;;13.20;8.50;;;;;;;;;;5013297;28;20556;-87
2023/01/19 02:58:48;;;;;;;15.63;9.57;;;;;;;;;;5013911;28;21120;-87
2023/01/19 03:02:35;;;;;;;15.87;9.40;;;;;;;;;;5014092;28;20611;-86
2023/01/19 03:06:00;;;;;;;14.63;9.20;;;;;;;;;;5003452;28;20599;-87
2023/01/19 03:09:20;;;;;;;14.83;9.77;;;;;;;;;;5013143;28;20556;-87
2023/01/19 03:12:37;;;;;;;14.60;9.60;;;;;;;;;;5013771;28;20615;-87
2023/01/19 03:15:51;;;;;;;17.47;9.47;;;;;;;;;;5013132;28;20885;-87
2023/01/19 03:19:03;;;;;;;14.90;10.27;;;;;;;;;;5003580;28;20595;-87
2023/01/19 03:22:13;;;;;;;14.37;10.10;;;;;;;;;;5012875;28;20631;-87
2023/01/19 03:25:20;;;;;;;14.83;10.00;;;;;;;;;;5012885;28;20647;-87
2023/01/19 03:28:28;;;;;;;16.10;10.23;;;;;;;;;;5012566;28;20567;-86
2023/01/19 03:31:32;;;;;;;14.70;9.83;;;;;;;;;;5013261;28;20642;-87
2023/01/19 03:34:38;;;;;;;15.50;10.60;;;;;;;;;;5012926;28;20599;-87
2023/01/19 03:37:46;;;;;;;15.50;10.37;;;;;;;;;;5023641;28;20610;-87
2023/01/19 03:40:57;;;;;;;17.43;10.23;;;;;;;;;;5001377;28;20559;-87
2023/01/19 03:44:04;;;;;;;14.90;10.63;;;;;;;;;;5023537;28;20614;-87
2023/01/19 03:47:10;;;;;;;21.80;12.03;;;;;;;;;;5024227;28;20986;-87
2023/01/19 03:50:26;;;;;;;16.20;10.47;;;;;;;;;;5013011;28;21141;-87
2023/01/19 03:53:30;;;;;;;15.23;10.17;;;;;;;;;;5012978;28;20631;-86
2023/01/19 03:56:35;;;;;;;18.13;10.53;;;;;;;;;;5011746;28;20555;-87
2023/01/19 03:59:39;;;;;;;17.60;10.50;;;;;;;;;;5023034;28;20591;-86
2023/01/19 04:02:43;;;;;;;16.47;10.40;;;;;;;;;;5001173;28;20622;-87
2023/01/19 04:05:48;;;;;;;18.93;11.90;;;;;;;;;;5023539;28;20595;-87
2023/01/19 04:08:52;;;;;;;17.17;11.27;;;;;;;;;;5000954;28;20559;-87
2023/01/19 04:11:57;;;;;;;18.33;10.73;;;;;;;;;;5001332;28;20618;-86
2023/01/19 04:15:01;;;;;;;16.00;11.20;;;;;;;;;;5012608;28;20563;-87
2023/01/19 04:18:05;;;;;;;17.03;11.23;;;;;;;;;;5012377;28;20570;-87
2023/01/19 04:21:09;;;;;;;16.50;11.03;;;;;;;;;;5000979;28;20903;-87
2023/01/19 04:24:14;;;;;;;17.53;11.17;;;;;;;;;;5012237;28;21105;-86
2023/01/19 04:27:18;;;;;;;17.57;11.00;;;;;;;;;;5023376;28;20555;-86
2023/01/19 04:30:23;;;;;;;18.57;11.33;;;;;;;;;;5001153;28;20551;-86
2023/01/19 04:33:27;;;;;;;16.13;10.70;;;;;;;;;;5001213;28;21121;-86
2023/01/19 04:36:31;;;;;;;16.83;10.80;;;;;;;;;;5022952;28;20579;-86
2023/01/19 04:39:35;;;;;;;16.67;11.00;;;;;;;;;;5012122;28;20611;-86
2023/01/19 04:42:44;;;;;;;18.83;11.77;;;;;;;;;;5011702;28;20645;-86
2023/01/19 04:45:48;;;;;;;18.47;10.80;;;;;;;;;;5000626;28;20615;-86
2023/01/19 04:48:52;;;;;;;15.37;11.23;;;;;;;;;;5000405;28;20559;-87
2023/01/19 04:51:57;;;;;;;16.17;10.47;;;;;;;;;;5011687;28;20645;-86
2023/01/19 04:55:02;;;;;;;19.37;10.63;;;;;;;;;;5011471;28;20594;-87
2023/01/19 04:58:07;;;;;;;19.43;11.10;;;;;;;;;;5011950;28;20559;-86
2023/01/19 05:01:10;;;;;;;18.13;11.00;;;;;;;;;;5012211;28;20563;-86
2023/01/19 05:04:15;;;;;;;17.57;11.30;;;;;;;;;;5012439;28;20610;-87
2023/01/19 05:07:19;;;;;;;22.47;12.07;;;;;;;;;;5001469;28;20654;-86
2023/01/19 05:10:23;;;;;;;19.63;11.63;;;;;;;;;;5015572;28;21117;-87
2023/01/19 05:13:27;;;;;;;19.93;11.77;;;;;;;;;;5015967;28;20555;-86
2023/01/19 05:16:31;;;;;;;17.57;11.57;;;;;;;;;;5015681;28;21110;-87
2023/01/19 05:19:35;;;;;;;17.90;11.13;;;;;;;;;;5004370;28;20610;-87
2023/01/19 05:22:40;;;;;;;17.07;11.30;;;;;;;;;;5026685;28;20641;-86
2023/01/19 05:25:44;;;;;;;24.47;12.43;;;;;;;;;;5015596;28;21188;-86
2023/01/19 05:28:49;;;;;;;21.30;12.07;;;;;;;;;;5025128;28;20554;-86
2023/01/19 05:31:53;;;;;;;20.30;11.37;;;;;;;;;;5013657;28;20630;-87
2023/01/19 05:34:57;;;;;;;18.23;10.87;;;;;;;;;;5014158;28;20555;-87
2023/01/19 05:38:02;;;;;;;18.07;11.80;;;;;;;;;;5025154;28;20547;-86
2023/01/19 05:41:06;;;;;;;17.93;10.97;;;;;;;;;;5002495;28;20579;-86
2023/01/19 05:44:11;;;;;;;20.17;10.87;;;;;;;;;;5001957;28;20982;-87
2023/01/19 05:47:15;;;;;;;19.93;10.97;;;;;;;;;;5013359;28;20614;-87
2023/01/19 05:50:20;;;;;;;19.20;12.60;;;;;;;;;;5016234;28;20555;-87
2023/01/19 05:53:25;;;;;;;22.53;12.17;;;;;;;;;;5014245;28;20911;-87
2023/01/19 05:56:29;;;;;;;20.97;11.40;;;;;;;;;;5014237;28;20555;-87
2023/01/19 05:59:34;;;;;;;17.20;11.23;;;;;;;;;;5013975;28;20567;-86
2023/01/19 06:02:38;;;;;;;20.70;12.50;;;;;;;;;;5013296;28;20630;-87
2023/01/19 06:05:42;;;;;;;17.13;11.97;;;;;;;;;;5013618;28;20618;-87
2023/01/19 06:08:46;;;;;;;19.73;12.30;;;;;;;;;;5003079;28;20563;-87
2023/01/19 06:11:53;;;;;;;19.67;12.13;;;;;;;;;;5013786;28;21216;-87
2023/01/19 06:14:57;;;;;;;21.43;11.80;;;;;;;;;;5012953;28;20558;-87
2023/01/19 06:18:01;;;;;;;18.00;11.17;;;;;;;;;;5013760;28;20551;-86
2023/01/19 06:21:08;;;;;;;20.53;12.50;;;;;;;;;;5012975;28;20635;-87
2023/01/19 06:24:12;;;;;;;21.83;12.30;;;;;;;;;;5024764;28;20559;-86
2023/01/19 06:27:16;;;;;;;20.13;12.10;;;;;;;;;;5013769;28;20614;-87
2023/01/19 06:30:20;;;;;;;17.83;10.77;;;;;;;;;;5016097;28;20559;-87
2023/01/19 06:33:24;;;;;;;19.27;12.57;;;;;;;;;;5028190;28;20564;-86
2023/01/19 06:36:28;;;;;;;19.37;12.37;;;;;;;;;;5015703;28;20571;-86
2023/01/19 06:39:33;;;;;;;18.20;11.77;;;;;;;;;;5003744;28;20559;-87
2023/01/19 06:42:37;;;;;;;15.03;11.13;;;;;;;;;;5025268;28;20634;-87
2023/01/19 06:45:41;;;;;;;14.50;10.83;;;;;;;;;;5014685;28;20618;-87
2023/01/19 06:48:45;;;;;;;18.47;12.33;;;;;;;;;;5013786;28;20566;-87
2023/01/19 06:51:49;;;;;;;20.33;11.63;;;;;;;;;;5025199;28;20714;-87
2023/01/19 06:54:53;;;;;;;18.27;11.07;;;;;;;;;;5025858;28;20563;-87
2023/01/19 06:57:58;;;;;;;18.30;12.10;;;;;;;;;;5025757;28;21121;-87
2023/01/19 07:01:04;;;;;;;17.93;10.93;;;;;;;;;;5014566;28;20611;-88
2023/01/19 07:04:12;;;;;;;17.13;11.07;;;;;;;;;;5014665;28;20607;-87
2023/01/19 07:07:17;;;;;;;18.77;11.57;;;;;;;;;;5025887;28;21188;-86
2023/01/19 07:10:22;;;;;;;17.60;11.57;;;;;;;;;;5013701;28;20555;-88
2023/01/19 07:13:26;;;;;;;20.43;11.73;;;;;;;;;;5025045;28;20579;-88
2023/01/19 07:16:30;;;;;;;18.40;11.53;;;;;;;;;;5013766;28;20551;-87
2023/01/19 07:19:34;;;;;;;16.80;10.83;;;;;;;;;;5013360;28;20566;-87
2023/01/19 07:22:40;;;;;;;18.67;11.67;;;;;;;;;;5013753;28;20987;-88
2023/01/19 07:25:45;;;;;;;20.03;11.23;;;;;;;;;;5013483;28;20559;-87
2023/01/19 07:28:51;;;;;;;22.57;12.60;;;;;;;;;;5013328;28;21129;-87
2023/01/19 07:31:55;;;;;;;18.27;11.40;;;;;;;;;;5002020;28;20631;-87
2023/01/19 07:34:59;;;;;;;17.07;11.67;;;;;;;;;;5002108;28;20551;-87
2023/01/19 07:38:03;;;;;;;18.47;12.47;;;;;;;;;;5013548;28;20559;-87
2023/01/19 07:41:08;;;;;;;19.13;11.93;;;;;;;;;;5002385;28;20955;-87
2023/01/19 07:44:12;;;;;;;18.80;12.73;;;;;;;;;;5013174;28;20614;-87
2023/01/19 07:47:17;;;;;;;19.77;12.23;;;;;;;;;;5025368;28;20614;-87
2023/01/19 07:50:24;;;;;;;23.07;14.13;;;;;;;;;;5013381;28;20555;-87
2023/01/19 07:53:31;;;;;;;23.20;14.37;;;;;;;;;;5024706;28;20564;-87
2023/01/19 07:56:35;;;;;;;20.60;13.70;;;;;;;;;;5012298;28;20559;-87
2023/01/19 07:59:39;;;;;;;19.93;12.50;;;;;;;;;;5001526;28;20551;-87
2023/01/19 08:02:43;;;;;;;18.97;11.63;;;;;;;;;;5001887;28;20622;-87
2023/01/19 08:05:52;;;;;;;19.40;12.03;;;;;;;;;;5012942;28;20555;-87
2023/01/19 08:08:56;;;;;;;18.53;11.17;;;;;;;;;;5012499;28;20579;-87
2023/01/19 08:12:00;;;;;;;19.57;12.30;;;;;;;;;;5012557;28;20626;-87
2023/01/19 08:15:05;;;;;;;20.87;13.53;;;;;;;;;;5012096;28;20571;-88
2023/01/19 08:18:10;;;;;;;23.17;13.80;;;;;;;;;;5023485;28;20543;-87
2023/01/19 08:21:15;;;;;;;23.17;11.90;;;;;;;;;;5012387;28;20622;-87
2023/01/19 08:24:21;;;;;;;23.53;13.63;;;;;;;;;;5012527;28;20571;-87
2023/01/19 08:27:25;;;;;;;22.37;11.97;;;;;;;;;;5024038;28;20623;-87
2023/01/19 08:30:30;;;;;;;18.33;12.27;;;;;;;;;;5011898;28;20559;-87
2023/01/19 08:33:35;;;;;;;20.23;11.87;;;;;;;;;;5011900;28;20563;-88
2023/01/19 08:36:39;;;;;;;15.83;10.97;;;;;;;;;;5012023;28;21117;-87
2023/01/19 08:39:43;;;;;;;15.60;10.70;;;;;;;;;;5000787;28;20555;-87
2023/01/19 08:42:47;;;;;;;15.47;10.30;;;;;;;;;;5012266;28;20638;-88
2023/01/19 08:45:52;;;;;;;15.00;10.13;;;;;;;;;;5032184;28;20571;-87
2023/01/19 08:48:56;;;;;;;15.43;9.83;;;;;;;;;;5015257;28;20552;-88
2023/01/19 08:52:01;;;;;;;13.07;8.93;;;;;;;;;;5015141;28;20623;-87
2023/01/19 08:55:06;;;;;;;14.83;9.60;;;;;;;;;;5014604;28;20603;-87
2023/01/19 08:58:11;;;;;;;15.60;9.67;;;;;;;;;;5015017;28;20603;-87
2023/01/19 09:01:15;;;;;;;16.17;9.23;;;;;;;;;;5014816;28;20956;-87
2023/01/19 09:04:19;;;;;;;12.37;8.90;;;;;;;;;;5015007;28;20935;-87
2023/01/19 09:07:23;;;;;;;11.87;7.70;;;;;;;;;;5014480;28;20647;-87
2023/01/19 09:10:34;;;;;;;15.23;8.50;;;;;;;;;;5014231;28;20599;-87
2023/01/19 09:13:40;;;;;;;10.17;7.60;;;;;;;;;;5014183;28;20548;-87
2023/01/19 09:16:43;;;;;;;10.07;7.77;;;;;;;;;;5013873;28;20544;-87
2023/01/19 09:19:48;;;;;;;10.60;7.70;;;;;;;;;;5014059;28;20551;-87
2023/01/19 09:22:54;;;;;;;11.77;8.07;;;;;;;;;;5013646;28;20619;-88
2023/01/19 09:26:01;;;;;;;13.70;8.57;;;;;;;;;;5013859;28;20932;-87
2023/01/19 09:29:05;;;;;;;15.07;8.43;;;;;;;;;;5013808;28;20540;-88
2023/01/19 09:32:10;;;;;;;12.27;7.87;;;;;;;;;;5025102;28;20630;-88
2023/01/19 09:35:14;;;;;;;12.57;8.43;;;;;;;;;;5002729;28;20551;-88
2023/01/19 09:38:19;;;;;;;12.63;7.23;;;;;;;;;;5013645;28;20551;-87
2023/01/19 09:41:24;;;;;;;11.30;7.43;;;;;;;;;;5013714;28;20615;-87
2023/01/19 09:44:33;;;;;;;10.20;7.07;;;;;;;;;;5013500;28;20626;-87
2023/01/19 09:47:38;;;;;;;9.57;6.27;;;;;;;;;;5013822;28;21165;-88
2023/01/19 09:50:47;;;;;;;10.53;7.47;;;;;;;;;;5013807;28;20544;-88
2023/01/19 09:54:16;;;;;;;10.80;7.97;;;;;;;;;;5012928;28;20548;-87
2023/01/19 09:57:22;;;;;;;13.40;8.30;;;;;;;;;;5013316;28;20544;-87
2023/01/19 10:00:28;;;;;;;11.93;6.90;;;;;;;;;;5002234;28;20599;-87
2023/01/19 10:03:37;;;;;;;11.73;7.33;;;;;;;;;;5013412;28;20599;-88
2023/01/19 10:06:42;;;;;;;13.37;7.63;;;;;;;;;;5024610;28;20591;-87
2023/01/19 10:10:15;;;;;;;13.30;8.10;;;;;;;;;;5012939;28;20552;-87
2023/01/19 10:13:35;;;;;;;13.27;8.50;;;;;;;;;;5001903;28;20548;-87
2023/01/19 10:16:49;;;;;;;9.83;6.90;;;;;;;;;;5024212;28;21107;-88
2023/01/19 10:19:57;;;;;;;10.03;6.40;;;;;;;;;;5024167;28;20548;-87
2023/01/19 10:23:04;;;;;;;10.27;6.70;;;;;;;;;;5035770;28;20639;-88
2023/01/19 10:26:42;;;;;;;10.50;7.03;;;;;;;;;;5012815;28;20551;-87
2023/01/19 10:29:46;;;;;;;11.33;7.17;;;;;;;;;;5012313;28;20544;-87
2023/01/19 10:32:51;;;;;;;8.80;6.50;;;;;;;;;;5023927;28;20967;-87
2023/01/19 10:35:55;;;;;;;9.97;5.83;;;;;;;;;;5012799;28;20587;-87
2023/01/19 10:38:59;;;;;;;7.77;5.77;;;;;;;;;;5012787;28;20595;-87
2023/01/19 10:42:05;;;;;;;8.33;5.47;;;;;;;;;;5024209;28;20627;-87
2023/01/19 10:45:18;;;;;;;8.13;5.50;;;;;;;;;;5002018;28;20208;-87
2023/01/19 10:48:22;;;;;;;8.70;5.93;;;;;;;;;;5023256;28;20639;-87
2023/01/19 10:51:27;;;;;;;9.57;6.20;;;;;;;;;;5012339;28;20221;-87
2023/01/19 10:54:33;;;;;;;7.20;5.50;;;;;;;;;;5012153;28;20172;-87
2023/01/19 10:57:42;;;;;;;9.07;5.80;;;;;;;;;;5023555;28;20169;-87
2023/01/19 11:00:46;;;;;;;8.23;5.53;;;;;;;;;;5012148;28;20541;-87
2023/01/19 11:03:52;;;;;;;7.53;5.10;;;;;;;;;;5023552;28;20181;-87
2023/01/19 11:07:13;;;;;;;7.83;5.60;;;;;;;;;;5022896;28;20172;-88
2023/01/19 11:10:28;;;;;;;6.87;4.93;;;;;;;;;;5012161;28;20177;-87
2023/01/19 11:13:32;;;;;;;9.13;5.37;;;;;;;;;;5023090;28;20177;-88
2023/01/19 11:16:38;;;;;;;7.77;5.20;;;;;;;;;;5011295;28;20518;-87
2023/01/19 11:19:53;;;;;;;8.17;5.50;;;;;;;;;;5011438;28;20197;-87
2023/01/19 11:23:05;;;;;;;8.10;5.63;;;;;;;;;;5023047;28;20217;-87
2023/01/19 11:26:39;;;;;;;14.20;5.93;;;;;;;;;;5011933;28;20181;-87
2023/01/19 11:30:09;;;;;;;8.37;5.70;;;;;;;;;;5017824;28;20193;-87
2023/01/19 11:33:24;;;;;;;7.93;5.13;;;;;;;;;;5011339;28;20212;-88
2023/01/19 11:36:35;;;;;;;10.23;5.23;;;;;;;;;;5011150;28;20181;-87
2023/01/19 11:39:52;;;;;;;8.80;5.47;;;;;;;;;;5011277;28;20173;-87
2023/01/19 11:42:57;;;;;;;7.77;5.17;;;;;;;;;;5000109;28;20212;-88
2023/01/19 11:46:01;;;;;;;6.97;4.93;;;;;;;;;;5011117;28;20185;-88
2023/01/19 11:49:31;;;;;;;8.03;5.30;;;;;;;;;;5010555;28;20204;-87
2023/01/19 11:52:42;;;;;;;12.60;5.87;;;;;;;;;;4990641;28;20549;-87
2023/01/19 11:55:51;;;;;;;6.87;5.00;;;;;;;;;;5000339;28;20184;-87
2023/01/19 11:58:55;;;;;;;9.23;5.73;;;;;;;;;;5022888;28;20181;-88
2023/01/19 12:02:03;;;;;;;7.90;5.60;;;;;;;;;;4999783;28;20621;-87
2023/01/19 12:05:12;;;;;;;8.33;5.60;;;;;;;;;;5011684;28;20197;-88
2023/01/19 12:08:25;;;;;;;8.77;5.63;;;;;;;;;;5011411;28;20224;-87
2023/01/19 12:11:45;;;;;;;9.07;5.60;;;;;;;;;;5000386;28;20212;-87
2023/01/19 12:14:59;;;;;;;8.80;5.97;;;;;;;;;;5011284;28;20638;-88
2023/01/19 12:18:06;;;;;;;8.07;5.70;;;;;;;;;;5021553;28;20664;-87
2023/01/19 12:21:10;;;;;;;9.03;6.30;;;;;;;;;;5010897;28;20181;-87
2023/01/19 12:24:38;;;;;;;9.63;6.07;;;;;;;;;;5010852;28;20548;-87
2023/01/19 12:27:44;;;;;;;7.13;5.70;;;;;;;;;;5011252;28;20205;-87
2023/01/19 12:30:50;;;;;;;7.93;5.47;;;;;;;;;;5011212;28;20172;-88
2023/01/19 12:34:24;;;;;;;10.03;5.67;;;;;;;;;;5011478;28;20177;-88
2023/01/19 12:37:40;;;;;;;9.10;5.37;;;;;;;;;;5021972;28;20587;-87
2023/01/19 12:40:44;;;;;;;8.70;6.17;;;;;;;;;;4999379;28;20173;-87
2023/01/19 12:44:10;;;;;;;10.17;5.50;;;;;;;;;;5010891;28;20611;-87
2023/01/19 12:47:14;;;;;;;6.40;4.80;;;;;;;;;;4999371;28;20169;-87
2023/01/19 12:50:22;;;;;;;8.87;5.53;;;;;;;;;;5010866;28;20899;-87
2023/01/19 12:53:26;;;;;;;8.10;6.00;;;;;;;;;;5021457;28;20552;-88
2023/01/19 12:56:33;;;;;;;8.20;6.30;;;;;;;;;;5010999;28;20654;-87
2023/01/19 12:59:38;;;;;;;8.47;5.37;;;;;;;;;;5010509;28;20916;-87
2023/01/19 13:02:45;;;;;;;7.43;4.73;;;;;;;;;;5021667;28;20216;-87
2023/01/19 13:05:51;;;;;;;6.63;4.70;;;;;;;;;;5010698;28;20177;-88
2023/01/19 13:08:57;;;;;;;8.53;4.70;;;;;;;;;;4998908;28;20209;-87
2023/01/19 13:12:14;;;;;;;5.90;3.87;;;;;;;;;;5010108;28;20212;-87
2023/01/19 13:15:36;;;;;;;8.00;3.83;;;;;;;;;;4999678;28;21082;-88
2023/01/19 13:18:42;;;;;;;6.00;4.13;;;;;;;;;;4999267;28;20541;-87
2023/01/19 13:21:48;;;;;;;7.10;4.13;;;;;;;;;;5010006;28;20619;-87
2023/01/19 13:25:19;;;;;;;8.50;7.17;;;;;;;;;;5021519;28;20194;-87
2023/01/19 13:28:45;;;;;;;6.60;5.00;;;;;;;;;;5010552;28;20204;-87
2023/01/19 13:31:51;;;;;;;9.27;6.47;;;;;;;;;;5025760;28;20990;-87
2023/01/19 13:34:57;;;;;;;8.80;6.80;;;;;;;;;;5013920;28;20552;-87
2023/01/19 13:38:02;;;;;;;7.87;4.17;;;;;;;;;;5014757;28;20544;-88
2023/01/19 13:41:07;;;;;;;4.73;3.50;;;;;;;;;;5025043;28;20555;-87
2023/01/19 13:44:25;;;;;;;5.97;4.40;;;;;;;;;;5024267;28;20611;-88
2023/01/19 13:47:39;;;;;;;18.20;16.40;;;;;;;;;;5025073;28;20552;-87
2023/01/19 13:51:03;;;;;;;17.07;15.00;;;;;;;;;;5013201;28;20552;-87
2023/01/19 13:54:14;;;;;;;24.60;14.17;;;;;;;;;;5001749;28;20556;-87
2023/01/19 13:57:30;;;;;;;18.07;12.17;;;;;;;;;;5024663;28;20563;-88
2023/01/19 14:00:34;;;;;;;11.00;6.97;;;;;;;;;;5012558;28;20596;-88
2023/01/19 14:03:39;;;;;;;13.37;11.17;;;;;;;;;;5024414;28;20556;-88
2023/01/19 14:06:45;;;;;;;6.43;4.90;;;;;;;;;;5012852;28;20560;-87
2023/01/19 14:10:04;;;;;;;8.13;5.13;;;;;;;;;;5012912;28;20611;-87
2023/01/19 14:13:24;;;;;;;6.30;4.90;;;;;;;;;;5012308;28;20631;-88
2023/01/19 14:16:27;;;;;;;8.33;4.47;;;;;;;;;;5012347;28;20548;-88
2023/01/19 14:19:46;;;;;;;7.00;4.50;;;;;;;;;;5012995;28;20544;-88
2023/01/19 14:22:51;;;;;;;31.50;16.07;;;;;;;;;;5012773;28;20623;-88
2023/01/19 14:25:55;;;;;;;32.00;17.70;;;;;;;;;;5012351;28;20552;-87
2023/01/19 14:29:11;;;;;;;15.57;8.33;;;;;;;;;;5012688;28;21178;-87
2023/01/19 14:32:23;;;;;;;8.17;5.60;;;;;;;;;;5001869;28;20631;-87
2023/01/19 14:35:28;;;;;;;8.70;5.77;;;;;;;;;;5024211;28;20557;-86
2023/01/19 14:38:33;;;;;;;6.27;4.50;;;;;;;;;;5024810;28;20540;-87
2023/01/19 14:41:46;;;;;;;10.10;5.70;;;;;;;;;;5001608;28;21185;-86
2023/01/19 14:44:52;;;;;;;7.67;5.10;;;;;;;;;;5012714;28;20623;-87
2023/01/19 14:48:02;;;;;;;7.63;4.60;;;;;;;;;;5012587;28;20556;-87
2023/01/19 14:51:11;;;;;;;7.03;4.63;;;;;;;;;;5012608;28;20555;-87
2023/01/19 14:54:23;;;;;;;7.27;4.10;;;;;;;;;;5023436;28;21122;-87
2023/01/19 14:57:27;;;;;;;5.07;3.93;;;;;;;;;;5023846;28;20600;-86
2023/01/19 15:00:48;;;;;;;6.50;4.00;;;;;;;;;;4994196;28;20635;-86
2023/01/19 15:03:52;;;;;;;11.70;6.30;;;;;;;;;;5001844;28;20947;-86
2023/01/19 15:06:57;;;;;;;13.67;8.00;;;;;;;;;;5012367;28;20544;-87
2023/01/19 15:10:01;;;;;;;10.63;6.80;;;;;;;;;;5023490;28;20599;-86
2023/01/19 15:13:05;;;;;;;7.30;5.50;;;;;;;;;;5012008;28;20631;-87
2023/01/19 15:16:10;;;;;;;5.97;4.90;;;;;;;;;;5012378;28;20551;-86
2023/01/19 15:19:15;;;;;;;6.83;4.47;;;;;;;;;;5023320;28;20556;-87
2023/01/19 15:22:23;;;;;;;7.27;5.10;;;;;;;;;;5012949;28;20617;-87
2023/01/19 15:25:29;;;;;;;8.80;5.70;;;;;;;;;;5011897;28;20557;-86
2023/01/19 15:28:33;;;;;;;6.40;4.37;;;;;;;;;;5011808;28;20595;-87
2023/01/19 15:31:37;;;;;;;5.97;4.47;;;;;;;;;;5012867;28;20622;-86
2023/01/19 15:34:41;;;;;;;6.10;4.07;;;;;;;;;;5014590;28;20552;-87
2023/01/19 15:37:47;;;;;;;6.07;4.07;;;;;;;;;;5027689;28;20591;-86
2023/01/19 15:40:51;;;;;;;5.97;3.73;;;;;;;;;;5027081;28;20540;-87
2023/01/19 15:43:56;;;;;;;6.03;3.73;;;;;;;;;;5004402;28;20606;-87
2023/01/19 15:47:00;;;;;;;5.77;4.13;;;;;;;;;;5002933;28;20919;-87
2023/01/19 15:50:05;;;;;;;9.63;6.73;;;;;;;;;;5023295;28;20608;-86
2023/01/19 15:53:15;;;;;;;38.50;27.20;;;;;;;;;;5022503;28;20611;-87
2023/01/19 15:56:24;;;;;;;21.03;16.13;;;;;;;;;;5000819;28;20548;-86
2023/01/19 15:59:28;;;;;;;24.17;18.27;;;;;;;;;;5011431;28;20557;-87
2023/01/19 16:02:33;;;;;;;27.23;17.87;;;;;;;;;;5012753;28;20627;-87
2023/01/19 16:05:38;;;;;;;10.67;7.57;;;;;;;;;;5026207;28;20552;-87
2023/01/19 16:08:42;;;;;;;13.53;10.40;;;;;;;;;;5003592;28;20607;-86
2023/01/19 16:11:46;;;;;;;18.00;11.43;;;;;;;;;;5002385;28;20622;-87
2023/01/19 16:14:50;;;;;;;31.80;23.30;;;;;;;;;;5000121;28;20543;-86
2023/01/19 16:17:54;;;;;;;18.93;11.60;;;;;;;;;;5012188;28;21134;-86
2023/01/19 16:20:59;;;;;;;19.67;13.47;;;;;;;;;;5011954;28;20603;-87
2023/01/19 16:24:04;;;;;;;11.20;7.47;;;;;;;;;;5011376;28;20595;-87
2023/01/19 16:27:08;;;;;;;10.00;6.63;;;;;;;;;;5022128;28;20552;-87
2023/01/19 16:30:15;;;;;;;7.70;5.40;;;;;;;;;;5022581;28;20596;-87
2023/01/19 16:33:19;;;;;;;7.83;4.83;;;;;;;;;;5010928;28;20893;-87
2023/01/19 16:36:29;;;;;;;8.93;3.93;;;;;;;;;;5034272;28;21177;-86
2023/01/19 16:39:33;;;;;;;5.57;4.07;;;;;;;;;;5011088;28;20552;-87
2023/01/19 16:42:38;;;;;;;5.10;3.73;;;;;;;;;;4999840;28;20615;-86
2023/01/19 16:45:57;;;;;;;5.40;4.23;;;;;;;;;;5011035;28;20603;-87
2023/01/19 16:49:09;;;;;;;6.73;4.73;;;;;;;;;;5010625;28;20603;-87
2023/01/19 16:52:13;;;;;;;5.80;4.23;;;;;;;;;;5014082;28;20615;-87
2023/01/19 16:55:18;;;;;;;8.73;4.53;;;;;;;;;;5015059;28;20552;-86
2023/01/19 16:58:22;;;;;;;7.17;4.50;;;;;;;;;;5016125;28;20548;-87
2023/01/19 17:01:27;;;;;;;7.63;4.40;;;;;;;;;;5004463;28;21189;-87
2023/01/19 17:04:31;;;;;;;6.40;4.63;;;;;;;;;;5005445;28;20556;-87
2023/01/19 17:07:36;;;;;;;8.50;4.97;;;;;;;;;;5018210;28;20603;-87
2023/01/19 17:10:40;;;;;;;7.00;4.77;;;;;;;;;;5018877;28;20650;-87
2023/01/19 17:13:51;;;;;;;8.00;5.23;;;;;;;;;;5018543;28;20555;-86
2023/01/19 17:16:54;;;;;;;7.60;5.10;;;;;;;;;;5017874;28;20607;-86
2023/01/19 17:19:59;;;;;;;7.70;5.50;;;;;;;;;;5007414;28;20544;-87
2023/01/19 17:23:03;;;;;;;12.10;5.97;;;;;;;;;;5017447;28;20614;-86
2023/01/19 17:26:07;;;;;;;10.90;6.27;;;;;;;;;;5030809;28;20552;-87
2023/01/19 17:29:11;;;;;;;14.93;8.50;;;;;;;;;;5035210;28;20604;-86
2023/01/19 17:32:15;;;;;;;8.07;5.50;;;;;;;;;;5024002;28;20626;-87
2023/01/19 17:35:20;;;;;;;8.50;5.83;;;;;;;;;;5021855;28;20548;-87
2023/01/19 17:38:24;;;;;;;9.97;5.83;;;;;;;;;;5022988;28;20551;-86
2023/01/19 17:41:31;;;;;;;11.87;6.10;;;;;;;;;;5024527;28;20623;-86
2023/01/19 17:44:35;;;;;;;9.50;6.87;;;;;;;;;;5047390;28;20606;-87
2023/01/19 17:47:40;;;;;;;11.03;7.30;;;;;;;;;;5012352;28;20607;-87
2023/01/19 17:50:44;;;;;;;8.73;6.20;;;;;;;;;;5022757;28;20607;-86
2023/01/19 17:53:49;;;;;;;8.87;5.73;;;;;;;;;;5022622;28;20611;-86
2023/01/19 17:56:55;;;;;;;8.53;6.17;;;;;;;;;;5022287;28;20589;-86
2023/01/19 17:59:59;;;;;;;9.43;6.17;;;;;;;;;;5021758;28;20548;-87
2023/01/19 18:03:03;;;;;;;12.30;6.40;;;;;;;;;;5009940;28;20619;-87
2023/01/19 18:06:08;;;;;;;7.60;5.67;;;;;;;;;;5010695;28;20556;-87
2023/01/19 18:09:12;;;;;;;20.30;10.43;;;;;;;;;;5023096;28;20603;-88
2023/01/19 18:12:18;;;;;;;30.57;15.23;;;;;;;;;;5023780;28;20619;-88
2023/01/19 18:15:23;;;;;;;17.00;9.73;;;;;;;;;;5033093;28;20919;-88
2023/01/19 18:18:28;;;;;;;12.97;8.27;;;;;;;;;;5023199;28;20551;-88
2023/01/19 18:21:32;;;;;;;13.97;8.73;;;;;;;;;;5022529;28;20615;-87
2023/01/19 18:24:36;;;;;;;18.20;10.67;;;;;;;;;;5011097;28;20596;-88
2023/01/19 18:27:41;;;;;;;8.97;6.07;;;;;;;;;;5032986;28;20555;-88
2023/01/19 18:30:45;;;;;;;14.10;9.47;;;;;;;;;;5021682;28;20880;-87
2023/01/19 18:33:49;;;;;;;11.50;8.00;;;;;;;;;;5021894;28;20889;-87